Oakland, MD

12:15 AM EDT on May 25, 2018 (GMT -0400)
Oakland

Weather History for K2G4 - April, 2013

Change the Weather History Date:

Friday, April 19, 2013

  Actual Average (KMGW) Record (KMGW)
Temperature  
Mean Temperature 52 °F -  
Max Temperature 68 °F 66 °F 88 °F (2002)
Min Temperature 37 °F 43 °F 23 °F (1983)
Degree Days  
Heating Degree Days 12    
Growing Degree Days 2 (Base 50)    
Moisture  
Dew Point 49 °F    
Average Humidity 84    
Maximum Humidity 100    
Minimum Humidity 56    
Precipitation  
Precipitation 0.00 in - - ()
Sea Level Pressure  
Sea Level Pressure 29.77 in    
Wind  
Wind Speed 16 mph (SSW)    
Max Wind Speed 25 mph    
Max Gust Speed 37 mph    
Visibility 9 miles    
Events      
Averages and records for this station are not official NWS values.
T = Trace of Precipitation, MM = Missing Value Source: NWS Daily Summary

Daily Weather History Graph

Daily Weather History Graph

Search for Another Location

Airport or City:

Astronomy

Apr. 19, 2013 Rise Set
Actual Time 6:33 AM EDT 7:59 PM EDT
Civil Twilight 6:05 AM EDT 8:27 PM EDT
Nautical Twilight 5:32 AM EDT 9:01 PM EDT
Astronomical Twilight 4:56 AM EDT 9:37 PM EDT
Moon 1:43 PM EDT (4/19) 2:46 AM EDT (4/19)
Length of Visible Light 14h 21m
Length of Day
13h 25m
First Quarter, 61% of the Moon is Illuminated
Apr 19
First Quarter
Apr 25
Full
May 2
Last Quarter
May 9
New
May 18
First Quarter

Hourly Weather History & Observations

Time (EDT) Temp. Windchill Dew Point Humidity Pressure Visibility Wind Dir Wind Speed Gust Speed Precip Events Conditions
12:05 AM 59.0 °F - 51.8 °F 77% 29.94 in 10.0 mi SSE 13.8 mph 19.6 mph N/A   Clear
12:25 AM 59.0 °F - 51.8 °F 77% 29.92 in 10.0 mi SSE 13.8 mph 20.7 mph N/A   Clear
12:45 AM 59.0 °F - 51.8 °F 77% 29.92 in 10.0 mi SSE 13.8 mph 24.2 mph N/A   Clear
1:05 AM 59.0 °F - 51.8 °F 77% 29.92 in 10.0 mi SSE 13.8 mph - N/A   Clear
1:25 AM 59.0 °F - 51.8 °F 77% 29.89 in 10.0 mi SSE 15.0 mph 20.7 mph N/A   Clear
1:45 AM 59.0 °F - 51.8 °F 77% 29.88 in 10.0 mi SSE 15.0 mph 20.7 mph N/A   Clear
2:05 AM 59.0 °F - 51.8 °F 77% 29.87 in 10.0 mi SSE 13.8 mph 23.0 mph N/A   Clear
2:25 AM 59.0 °F - 51.8 °F 77% 29.86 in 10.0 mi SSE 16.1 mph 23.0 mph N/A   Clear
2:45 AM 59.0 °F - 51.8 °F 77% 29.84 in 10.0 mi SSE 17.3 mph 21.9 mph N/A   Clear
3:05 AM 59.0 °F - 53.6 °F 82% 29.83 in 10.0 mi SSE 18.4 mph 24.2 mph N/A   Clear
3:25 AM 59.0 °F - 53.6 °F 82% 29.83 in 10.0 mi SSE 17.3 mph 23.0 mph N/A   Clear
3:45 AM 59.0 °F - 53.6 °F 82% 29.83 in 10.0 mi SSE 15.0 mph 23.0 mph N/A   Clear
4:05 AM 59.0 °F - 53.6 °F 82% 29.81 in 10.0 mi SSE 17.3 mph 23.0 mph N/A   Clear
4:25 AM 57.2 °F - 53.6 °F 88% 29.80 in 10.0 mi SSE 16.1 mph 24.2 mph N/A   Clear
4:45 AM 57.2 °F - 53.6 °F 88% 29.80 in 10.0 mi SSE 13.8 mph - N/A   Clear
5:05 AM 57.2 °F - 53.6 °F 88% 29.79 in 10.0 mi SSE 15.0 mph 19.6 mph N/A   Clear
5:25 AM 59.0 °F - 53.6 °F 82% 29.79 in 10.0 mi SSE 19.6 mph 24.2 mph N/A   Clear
5:45 AM 59.0 °F - 53.6 °F 82% 29.79 in 10.0 mi SSE 17.3 mph 25.3 mph N/A   Clear
6:05 AM 59.0 °F - 53.6 °F 82% 29.78 in 10.0 mi SSE 18.4 mph 27.6 mph N/A   Clear
6:25 AM 59.0 °F - 53.6 °F 82% 29.78 in 10.0 mi SSE 17.3 mph 25.3 mph N/A   Clear
6:45 AM 57.2 °F - 53.6 °F 88% 29.78 in 10.0 mi SSE 15.0 mph 21.9 mph N/A   Clear
7:05 AM 57.2 °F - 53.6 °F 88% 29.77 in 10.0 mi SSE 15.0 mph 21.9 mph N/A   Clear
7:25 AM 59.0 °F - 53.6 °F 82% 29.77 in 10.0 mi SSE 16.1 mph 23.0 mph N/A   Clear
7:45 AM 59.0 °F - 53.6 °F 82% 29.77 in 10.0 mi SSE 19.6 mph 26.5 mph N/A   Clear
8:05 AM 59.0 °F - 53.6 °F 82% 29.77 in 10.0 mi SSE 17.3 mph 23.0 mph N/A   Clear
8:25 AM 59.0 °F - 53.6 °F 82% 29.75 in 10.0 mi SSE 20.7 mph 25.3 mph N/A   Clear
8:45 AM 59.0 °F - 53.6 °F 82% 29.74 in 10.0 mi SSE 19.6 mph 26.5 mph N/A   Clear
9:05 AM 59.0 °F - 53.6 °F 82% 29.74 in 10.0 mi SSE 16.1 mph 24.2 mph N/A   Clear
9:25 AM 60.8 °F - 53.6 °F 77% 29.73 in 10.0 mi SSE 21.9 mph 26.5 mph N/A   Clear
9:45 AM 60.8 °F - 53.6 °F 77% 29.73 in 10.0 mi SSE 16.1 mph 25.3 mph N/A   Clear
10:05 AM 62.6 °F - 53.6 °F 72% 29.72 in 10.0 mi SSE 15.0 mph 24.2 mph N/A   Clear
10:25 AM 64.4 °F - 51.8 °F 64% 29.72 in 10.0 mi South 25.3 mph 31.1 mph N/A   Scattered Clouds
10:45 AM 64.4 °F - 51.8 °F 64% 29.71 in 10.0 mi South 16.1 mph 29.9 mph N/A   Mostly Cloudy
11:05 AM 66.2 °F - 51.8 °F 60% 29.71 in 10.0 mi South 20.7 mph 36.8 mph N/A   Mostly Cloudy
11:25 AM 66.2 °F - 51.8 °F 60% 29.71 in 10.0 mi South 21.9 mph 33.4 mph N/A   Mostly Cloudy
11:45 AM 64.4 °F - 51.8 °F 64% 29.73 in 10.0 mi SSW 17.3 mph 27.6 mph N/A   Overcast
12:05 PM 62.6 °F - 53.6 °F 72% 29.72 in 10.0 mi SSW 12.7 mph 20.7 mph N/A   Overcast
12:25 PM 64.4 °F - 51.8 °F 64% 29.70 in 10.0 mi SSW 18.4 mph 26.5 mph N/A   Overcast
12:45 PM 60.8 °F - 55.4 °F 82% 29.65 in 5.0 mi South 16.1 mph 31.1 mph N/A   Haze
1:05 PM 64.4 °F - 55.4 °F 73% 29.65 in 10.0 mi South 18.4 mph 28.8 mph N/A   Scattered Clouds
1:25 PM 66.2 °F - 53.6 °F 64% 29.63 in 10.0 mi South 20.7 mph 31.1 mph N/A   Clear
2:05 PM 68.0 °F - 51.8 °F 56% 29.62 in 10.0 mi SSW 21.9 mph 29.9 mph N/A   Scattered Clouds
2:25 PM 66.2 °F - 51.8 °F 60% 29.62 in 10.0 mi South 19.6 mph 34.5 mph N/A   Mostly Cloudy
2:45 PM 66.2 °F - 53.6 °F 64% 29.61 in 10.0 mi South 15.0 mph 27.6 mph N/A   Overcast
3:05 PM 59.0 °F - 59.0 °F 100% 29.64 in 1.2 mi West 11.5 mph 31.1 mph N/A   Overcast
3:25 PM 53.6 °F - 53.6 °F 100% 29.68 in 4.0 mi West 16.1 mph 25.3 mph N/A   Overcast
3:45 PM 50.0 °F - 50.0 °F 100% 29.68 in 2.5 mi West 15.0 mph 27.6 mph N/A   Overcast
4:05 PM 46.4 °F 39.5 °F 46.4 °F 100% 29.70 in 1.8 mi West 17.3 mph 26.5 mph N/A   Overcast
4:25 PM 46.4 °F 39.5 °F 46.4 °F 100% 29.76 in 1.0 mi West 17.3 mph 31.1 mph N/A   Overcast
4:45 PM 44.6 °F 40.2 °F 44.6 °F 100% 29.73 in 7.0 mi West 8.1 mph 21.9 mph N/A   Overcast
5:05 PM 44.6 °F 38.8 °F 44.6 °F 100% 29.72 in 2.5 mi West 11.5 mph 17.3 mph N/A   Overcast
5:25 PM 42.8 °F 35.4 °F 42.8 °F 100% 29.72 in 10.0 mi West 15.0 mph 24.2 mph N/A   Overcast
5:45 PM 42.8 °F 35.1 °F 42.8 °F 100% 29.72 in 10.0 mi West 16.1 mph 24.2 mph N/A   Overcast
6:05 PM 42.8 °F 34.3 °F 42.8 °F 100% 29.73 in 10.0 mi WSW 19.6 mph 29.9 mph N/A   Overcast
6:25 PM 41.0 °F 32.5 °F 41.0 °F 100% 29.73 in 10.0 mi WSW 17.3 mph 25.3 mph N/A   Overcast
6:45 PM 41.0 °F 33.9 °F 41.0 °F 100% 29.75 in 10.0 mi WSW 12.7 mph 23.0 mph N/A   Overcast
7:05 PM 39.2 °F 30.5 °F 39.2 °F 100% 29.77 in 10.0 mi WSW 16.1 mph 29.9 mph N/A   Overcast
7:25 PM 39.2 °F 31.2 °F 39.2 °F 100% 29.76 in 10.0 mi WSW 13.8 mph 23.0 mph N/A   Overcast
7:45 PM 39.2 °F 32.0 °F 39.2 °F 100% 29.77 in 10.0 mi West 11.5 mph 20.7 mph N/A   Overcast
8:05 PM 37.4 °F 29.3 °F 37.4 °F 100% 29.76 in 10.0 mi WSW 12.7 mph 25.3 mph N/A   Overcast
8:25 PM 37.4 °F 28.9 °F 35.6 °F 93% 29.77 in 10.0 mi WSW 13.8 mph 21.9 mph N/A   Overcast
8:45 PM 37.4 °F 29.8 °F 35.6 °F 93% 29.78 in 10.0 mi WSW 11.5 mph 19.6 mph N/A   Mostly Cloudy
9:45 PM 37.4 °F 29.3 °F 35.6 °F 93% 29.80 in 10.0 mi WSW 12.7 mph 20.7 mph N/A   Overcast
10:05 PM 37.4 °F 28.9 °F 33.8 °F 87% 29.81 in 10.0 mi WSW 13.8 mph 19.6 mph N/A   Mostly Cloudy
10:25 PM 37.4 °F 29.8 °F 35.6 °F 93% 29.81 in 10.0 mi WSW 11.5 mph 19.6 mph N/A   Overcast
10:45 PM 37.4 °F 29.8 °F 35.6 °F 93% 29.81 in 10.0 mi West 11.5 mph 20.7 mph N/A   Overcast
11:05 PM 37.4 °F 28.5 °F 33.8 °F 87% 29.83 in 10.0 mi West 15.0 mph 23.0 mph N/A   Overcast
11:25 PM 37.4 °F 29.8 °F 33.8 °F 87% 29.83 in 10.0 mi West 11.5 mph 21.9 mph N/A   Overcast
11:45 PM 37.4 °F 30.3 °F 33.8 °F 87% 29.83 in 10.0 mi West 10.4 mph 19.6 mph N/A   Overcast